createdAt,value
2022-09-28T00:01:01.503Z,100.00
2022-09-28T00:03:29.454Z,100.00
2022-09-28T00:06:02.952Z,100.00
2022-09-28T00:08:30.843Z,100.00
2022-09-28T00:10:59.212Z,100.00
2022-09-28T00:13:28.215Z,100.00
2022-09-28T00:16:06.351Z,100.00
2022-09-28T00:18:36.125Z,100.00
2022-09-28T00:21:06.482Z,99.77
2022-09-28T00:23:34.777Z,99.41
2022-09-28T00:26:03.929Z,99.39
2022-09-28T00:28:32.183Z,99.40
2022-09-28T00:31:00.979Z,99.01
2022-09-28T00:33:30.205Z,99.20
2022-09-28T00:35:58.790Z,99.00
2022-09-28T00:38:29.984Z,98.61
2022-09-28T00:40:57.960Z,98.56
2022-09-28T00:43:26.456Z,98.17
2022-09-28T00:46:00.297Z,98.46
2022-09-28T00:48:32.120Z,98.66
2022-09-28T00:51:03.799Z,98.79
2022-09-28T00:53:35.017Z,98.95
2022-09-28T00:56:07.527Z,100.00
2022-09-28T00:58:40.819Z,99.74
2022-09-28T01:01:08.899Z,100.00
2022-09-28T01:03:41.317Z,100.00
2022-09-28T01:06:10.504Z,100.00
2022-09-28T01:08:40.543Z,100.00
2022-09-28T01:11:08.626Z,100.00
2022-09-28T01:13:37.427Z,100.00
2022-09-28T01:16:14.219Z,100.00
2022-09-28T01:18:53.933Z,100.00
2022-09-28T01:21:23.415Z,100.00
2022-09-28T01:24:22.232Z,100.00
2022-09-28T01:26:59.456Z,100.00
2022-09-28T01:29:37.147Z,100.00
2022-09-28T01:32:15.423Z,100.00
2022-09-28T01:34:49.267Z,100.00
2022-09-28T01:37:20.992Z,100.00
2022-09-28T01:39:51.126Z,100.00
2022-09-28T01:42:24.591Z,100.00
2022-09-28T01:44:56.696Z,100.00
2022-09-28T01:47:28.239Z,100.00
2022-09-28T01:50:02.145Z,100.00
2022-09-28T01:52:36.469Z,100.00
2022-09-28T01:55:10.772Z,100.00
2022-09-28T01:57:44.337Z,100.00
2022-09-28T02:00:15.129Z,100.00
2022-09-28T02:02:48.764Z,100.00
2022-09-28T02:05:19.334Z,100.00
2022-09-28T02:07:54.837Z,100.00
2022-09-28T02:10:26.338Z,100.00
2022-09-28T02:13:00.232Z,100.00
2022-09-28T02:15:34.908Z,100.00
2022-09-28T02:18:03.186Z,100.00
2022-09-28T02:20:35.612Z,100.00
2022-09-28T02:23:05.751Z,100.00
2022-09-28T02:25:39.466Z,100.00
2022-09-28T02:28:11.787Z,100.00
2022-09-28T02:30:41.601Z,100.00
2022-09-28T02:33:14.605Z,100.00
2022-09-28T02:35:43.897Z,100.00
2022-09-28T02:38:12.668Z,100.00
2022-09-28T02:40:41.157Z,100.00
2022-09-28T02:43:21.691Z,100.00
2022-09-28T02:46:02.121Z,100.00
2022-09-28T02:48:52.251Z,100.00
2022-09-28T02:51:37.376Z,100.00
2022-09-28T02:54:19.003Z,100.00
2022-09-28T02:57:17.470Z,100.00
2022-09-28T02:59:51.348Z,100.00
2022-09-28T03:02:29.214Z,100.00
2022-09-28T03:05:15.276Z,100.00
2022-09-28T03:07:49.486Z,100.00
2022-09-28T03:10:25.133Z,100.00
2022-09-28T03:12:55.216Z,100.00
2022-09-28T03:15:26.740Z,100.00
2022-09-28T03:17:54.744Z,100.00
2022-09-28T03:20:22.557Z,100.00
2022-09-28T03:23:12.454Z,100.00
2022-09-28T03:25:38.256Z,100.00
2022-09-28T03:28:06.064Z,100.00
2022-09-28T03:30:35.289Z,100.00
2022-09-28T03:33:03.238Z,100.00
2022-09-28T03:35:31.068Z,100.00
2022-09-28T03:37:58.934Z,100.00
2022-09-28T03:40:27.101Z,100.00
2022-09-28T03:42:55.099Z,100.00
2022-09-28T03:45:22.968Z,100.00
2022-09-28T03:47:52.254Z,100.00
2022-09-28T03:50:20.115Z,100.00
2022-09-28T03:52:47.937Z,100.00
2022-09-28T03:55:15.802Z,100.00
2022-09-28T03:57:43.775Z,100.00
2022-09-28T04:00:12.883Z,100.00
2022-09-28T04:02:40.719Z,100.00
2022-09-28T04:05:10.383Z,100.00
2022-09-28T04:07:38.240Z,100.00
2022-09-28T04:10:06.856Z,100.00
2022-09-28T04:12:34.685Z,100.00
2022-09-28T04:15:02.577Z,100.00
2022-09-28T04:17:30.991Z,100.00
2022-09-28T04:19:59.205Z,100.00
2022-09-28T04:22:28.380Z,100.00
2022-09-28T04:24:56.141Z,100.00
2022-09-28T04:27:41.448Z,100.00
2022-09-28T04:30:10.885Z,100.00
2022-09-28T04:32:38.732Z,100.00
2022-09-28T04:35:07.567Z,100.00
2022-09-28T04:37:36.706Z,100.00
2022-09-28T04:40:05.099Z,100.00
2022-09-28T04:42:32.879Z,100.00
2022-09-28T04:45:01.055Z,100.00
2022-09-28T04:47:30.715Z,100.00
2022-09-28T04:49:58.522Z,100.00
2022-09-28T04:52:27.096Z,100.00
2022-09-28T04:54:56.242Z,100.00
2022-09-28T04:57:24.043Z,100.00
2022-09-28T04:59:51.824Z,100.00
2022-09-28T05:02:20.480Z,100.00
2022-09-28T05:04:48.316Z,100.00
2022-09-28T05:07:16.118Z,100.00
2022-09-28T05:09:43.912Z,100.00
2022-09-28T05:12:13.127Z,100.00
2022-09-28T05:14:41.320Z,100.00
2022-09-28T05:17:10.498Z,100.00
2022-09-28T05:19:38.353Z,100.00
2022-09-28T05:22:08.436Z,100.00
2022-09-28T05:24:36.218Z,100.00
2022-09-28T05:27:04.368Z,100.00
2022-09-28T05:29:33.553Z,100.00
2022-09-28T05:32:02.360Z,100.00
2022-09-28T05:34:30.541Z,100.00
2022-09-28T05:36:58.420Z,100.00
2022-09-28T05:39:26.189Z,100.00
2022-09-28T05:41:53.976Z,100.00
2022-09-28T05:44:23.242Z,100.00
2022-09-28T05:46:54.833Z,100.00
2022-09-28T05:49:22.678Z,100.00
2022-09-28T05:51:50.492Z,100.00
2022-09-28T05:54:18.420Z,100.00
2022-09-28T05:56:46.310Z,100.00
2022-09-28T05:59:14.071Z,100.00
2022-09-28T06:01:41.900Z,100.00
2022-09-28T06:04:11.155Z,100.00
2022-09-28T06:06:39.452Z,100.00
2022-09-28T06:09:07.214Z,100.00
2022-09-28T06:11:35.041Z,100.00
2022-09-28T06:14:02.832Z,100.00
2022-09-28T06:16:30.780Z,100.00
2022-09-28T06:18:58.656Z,100.00
2022-09-28T06:21:27.892Z,100.00
2022-09-28T06:23:55.698Z,100.00
2022-09-28T06:26:23.465Z,100.00
2022-09-28T06:28:51.456Z,100.00
2022-09-28T06:31:19.891Z,100.00
2022-09-28T06:33:49.531Z,100.00
2022-09-28T06:36:17.736Z,100.00
2022-09-28T06:38:47.200Z,100.00
2022-09-28T06:41:15.495Z,100.00
2022-09-28T06:43:43.424Z,100.00
2022-09-28T06:46:11.560Z,100.00
2022-09-28T06:48:39.374Z,100.00
2022-09-28T06:51:07.725Z,100.00
2022-09-28T06:53:35.853Z,100.00
2022-09-28T06:56:06.595Z,100.00
2022-09-28T06:58:34.380Z,100.00
2022-09-28T07:01:02.303Z,99.94
2022-09-28T07:03:30.229Z,98.66
2022-09-28T07:05:58.407Z,97.93
2022-09-28T07:08:28.808Z,97.68
2022-09-28T07:10:57.355Z,98.52
2022-09-28T07:16:16.425Z,97.82
2022-09-28T07:18:44.264Z,99.35
2022-09-28T07:21:22.628Z,98.08
2022-09-28T07:23:54.884Z,99.13
2022-09-28T07:26:24.589Z,99.11
2022-09-28T07:28:56.094Z,99.56
2022-09-28T07:31:25.542Z,98.19
2022-09-28T07:33:53.937Z,99.71
2022-09-28T07:36:22.845Z,99.68
2022-09-28T07:38:50.955Z,98.35
2022-09-28T07:41:22.470Z,97.75
2022-09-28T07:43:50.932Z,98.57
2022-09-28T07:46:21.345Z,97.39
2022-09-28T07:48:51.758Z,96.73
2022-09-28T07:51:21.265Z,96.52
2022-09-28T07:53:49.199Z,94.51
2022-09-28T07:56:18.269Z,92.37
2022-09-28T07:58:48.160Z,88.92
2022-09-28T08:01:16.639Z,88.44
2022-09-28T08:03:48.000Z,85.89
2022-09-28T08:06:17.697Z,84.69
2022-09-28T08:08:45.774Z,84.87
2022-09-28T08:11:14.749Z,81.95
2022-09-28T08:13:44.000Z,82.00
2022-09-28T08:16:11.892Z,82.54
2022-09-28T08:18:39.817Z,80.78
2022-09-28T08:21:28.124Z,78.20
2022-09-28T08:23:55.989Z,77.87
2022-09-28T08:26:23.820Z,75.00
2022-09-28T08:28:51.799Z,73.46
2022-09-28T08:31:19.590Z,72.87
2022-09-28T08:33:49.597Z,68.87
2022-09-28T08:36:18.820Z,72.20
2022-09-28T08:38:46.677Z,73.38
2022-09-28T08:41:20.165Z,71.56
2022-09-28T08:44:04.011Z,70.40
2022-09-28T08:46:36.487Z,70.86
2022-09-28T08:49:26.276Z,70.10
2022-09-28T08:52:00.702Z,66.14
2022-09-28T08:54:37.580Z,68.41
2022-09-28T08:57:11.153Z,69.51
2022-09-28T08:59:47.969Z,69.40
2022-09-28T09:02:19.675Z,68.81
2022-09-28T09:04:47.628Z,70.45
2022-09-28T09:07:39.983Z,71.26
2022-09-28T09:10:18.764Z,72.05
2022-09-28T09:13:00.768Z,72.42
2022-09-28T09:15:43.426Z,72.24
2022-09-28T09:18:23.237Z,70.59
2022-09-28T09:20:56.829Z,68.05
2022-09-28T09:23:37.305Z,68.75
2022-09-28T09:26:18.851Z,68.71
2022-09-28T09:29:07.447Z,67.71
2022-09-28T09:31:53.075Z,66.18
2022-09-28T09:34:39.745Z,67.29
2022-09-28T09:37:22.391Z,66.77
2022-09-28T09:40:03.058Z,66.53
2022-09-28T09:42:46.172Z,68.52
2022-09-28T09:45:41.044Z,68.88
2022-09-28T09:48:14.629Z,67.89
2022-09-28T09:50:48.616Z,70.08
2022-09-28T09:53:24.093Z,70.01
2022-09-28T09:55:57.408Z,70.00
2022-09-28T09:58:29.772Z,70.93
2022-09-28T10:01:08.155Z,70.56
2022-09-28T10:03:40.895Z,71.05
2022-09-28T10:06:13.260Z,72.06
2022-09-28T10:08:47.515Z,72.21
2022-09-28T10:11:22.163Z,71.47
2022-09-28T10:13:50.288Z,70.69
2022-09-28T10:16:19.709Z,68.88
2022-09-28T10:18:49.599Z,70.31
2022-09-28T10:21:19.624Z,70.22
2022-09-28T10:23:51.246Z,70.15
2022-09-28T10:26:26.374Z,69.53
2022-09-28T10:28:59.244Z,68.53
2022-09-28T10:31:41.910Z,68.75
2022-09-28T10:34:14.215Z,67.22
2022-09-28T10:36:52.563Z,64.56
2022-09-28T10:39:31.142Z,60.32
2022-09-28T10:42:04.312Z,58.59
2022-09-28T10:44:34.711Z,59.37
2022-09-28T10:47:04.980Z,58.34
2022-09-28T10:49:44.374Z,58.92
2022-09-28T10:52:33.653Z,56.97
2022-09-28T10:55:02.361Z,55.88
2022-09-28T10:57:36.674Z,54.42
2022-09-28T11:00:06.959Z,49.38
2022-09-28T11:02:37.698Z,52.57
2022-09-28T11:05:07.917Z,53.80
2022-09-28T11:07:46.848Z,54.04
2022-09-28T11:10:22.089Z,55.97
2022-09-28T11:12:52.556Z,58.51
2022-09-28T11:15:22.398Z,59.80
2022-09-28T11:17:50.219Z,60.72
2022-09-28T11:20:34.654Z,61.80
2022-09-28T11:23:20.394Z,61.06
2022-09-28T11:26:01.075Z,62.77
2022-09-28T11:28:33.612Z,62.58
2022-09-28T11:31:03.655Z,62.54
2022-09-28T11:33:34.035Z,62.09
2022-09-28T11:36:29.169Z,60.43
2022-09-28T11:39:09.858Z,61.18
2022-09-28T11:41:53.406Z,59.42
2022-09-28T11:44:41.377Z,56.76
2022-09-28T11:47:24.083Z,52.73
2022-09-28T11:49:58.945Z,53.22
2022-09-28T11:52:31.924Z,53.64
2022-09-28T11:55:06.307Z,52.99
2022-09-28T11:57:38.873Z,52.88
2022-09-28T12:00:14.954Z,51.82
2022-09-28T12:02:48.906Z,52.74
2022-09-28T12:05:23.998Z,52.13
2022-09-28T12:07:55.741Z,52.57
2022-09-28T12:10:37.058Z,53.92
2022-09-28T12:13:10.190Z,53.62
2022-09-28T12:16:17.131Z,53.78
2022-09-28T12:18:42.916Z,52.08
2022-09-28T12:21:23.550Z,51.67
2022-09-28T12:23:52.673Z,49.20
2022-09-28T12:26:33.432Z,48.49
2022-09-28T12:29:11.380Z,46.60
2022-09-28T12:31:57.099Z,43.92
2022-09-28T12:34:24.984Z,42.15
2022-09-28T12:37:08.733Z,43.64
2022-09-28T12:39:57.434Z,40.44
2022-09-28T12:42:53.087Z,40.07
2022-09-28T12:45:42.898Z,42.07
2022-09-28T12:48:52.923Z,42.43
2022-09-28T12:51:45.048Z,43.36
2022-09-28T12:54:30.534Z,42.70
2022-09-28T12:57:08.872Z,42.54
2022-09-28T12:59:40.817Z,39.31
2022-09-28T13:02:37.004Z,40.16
2022-09-28T13:05:31.564Z,41.80
2022-09-28T13:08:06.073Z,42.55
2022-09-28T13:10:42.191Z,45.89
2022-09-28T13:13:29.503Z,44.71
2022-09-28T13:16:07.709Z,45.96
2022-09-28T13:18:43.885Z,47.88
2022-09-28T13:21:23.599Z,46.99
2022-09-28T13:24:00.800Z,45.35
2022-09-28T13:26:39.548Z,47.18
2022-09-28T13:29:14.250Z,45.04
2022-09-28T13:31:47.054Z,44.68
2022-09-28T13:34:20.800Z,42.94
2022-09-28T13:37:11.231Z,45.98
2022-09-28T13:39:59.001Z,46.17
2022-09-28T13:42:56.275Z,44.87
2022-09-28T13:45:50.732Z,44.26
2022-09-28T13:48:22.216Z,44.92
2022-09-28T13:51:15.909Z,39.38
2022-09-28T13:54:41.490Z,38.84
2022-09-28T13:57:19.739Z,37.83
2022-09-28T14:00:02.629Z,40.37
2022-09-28T14:02:37.726Z,37.82
2022-09-28T14:05:07.296Z,40.69
2022-09-28T14:08:25.980Z,37.19
2022-09-28T14:10:56.446Z,36.43
2022-09-28T14:13:59.223Z,36.01
2022-09-28T14:16:28.459Z,38.87
2022-09-28T14:19:00.354Z,39.47
2022-09-28T14:21:59.243Z,38.82
2022-09-28T14:24:40.846Z,42.63
2022-09-28T14:27:44.829Z,44.99
2022-09-28T14:30:23.447Z,45.87
2022-09-28T14:32:56.203Z,48.18
2022-09-28T14:35:34.270Z,48.36
2022-09-28T14:38:24.870Z,49.12
2022-09-28T14:41:10.603Z,50.36
2022-09-28T14:43:59.867Z,51.03
2022-09-28T14:46:30.200Z,50.46
2022-09-28T14:49:03.395Z,51.60
2022-09-28T14:52:03.723Z,52.31
2022-09-28T14:54:43.349Z,52.17
2022-09-28T14:57:18.907Z,51.50
2022-09-28T14:59:48.231Z,51.86
2022-09-28T15:02:25.037Z,49.39
2022-09-28T15:04:55.913Z,51.62
2022-09-28T15:07:26.960Z,51.80
2022-09-28T15:09:56.245Z,52.30
2022-09-28T15:12:28.116Z,52.44
2022-09-28T15:14:59.376Z,53.07
2022-09-28T15:17:30.563Z,51.21
2022-09-28T15:20:21.872Z,50.97
2022-09-28T15:22:52.025Z,52.19
2022-09-28T15:25:21.429Z,52.90
2022-09-28T15:27:54.626Z,53.82
2022-09-28T15:30:27.951Z,52.99
2022-09-28T15:33:17.622Z,53.62
2022-09-28T15:35:47.753Z,53.72
2022-09-28T15:38:18.314Z,54.77
2022-09-28T15:40:47.889Z,54.82
2022-09-28T15:43:26.917Z,54.62
2022-09-28T15:46:02.810Z,54.50
2022-09-28T15:48:32.815Z,54.78
2022-09-28T15:51:10.285Z,55.12
2022-09-28T15:53:43.277Z,55.13
2022-09-28T15:56:12.102Z,55.95
2022-09-28T15:58:40.528Z,56.25
2022-09-28T16:01:40.641Z,55.35
2022-09-28T16:04:40.753Z,55.46
2022-09-28T16:07:25.350Z,55.69
2022-09-28T16:10:06.274Z,56.10
2022-09-28T16:12:46.555Z,55.87
2022-09-28T16:15:20.420Z,53.05
2022-09-28T16:17:56.063Z,51.58
2022-09-28T16:20:29.952Z,50.25
2022-09-28T16:23:05.741Z,49.56
2022-09-28T16:25:37.509Z,49.61
2022-09-28T16:28:06.809Z,52.03
2022-09-28T16:30:35.828Z,53.09
2022-09-28T16:33:06.785Z,53.44
2022-09-28T16:35:51.556Z,52.94
2022-09-28T16:38:21.112Z,53.24
2022-09-28T16:40:50.708Z,54.49
2022-09-28T16:43:26.872Z,54.54
2022-09-28T16:45:57.613Z,55.33
2022-09-28T16:48:29.142Z,57.44
2022-09-28T16:50:57.857Z,59.02
2022-09-28T16:53:44.390Z,59.79
2022-09-28T16:56:13.850Z,61.00
2022-09-28T16:58:42.553Z,62.18
2022-09-28T17:01:12.680Z,63.05
2022-09-28T17:03:46.703Z,63.44
2022-09-28T17:06:19.893Z,63.85
2022-09-28T17:08:48.255Z,64.85
2022-09-28T17:11:23.734Z,65.79
2022-09-28T17:13:52.355Z,66.66
2022-09-28T17:16:37.282Z,68.01
2022-09-28T17:19:19.830Z,69.08
2022-09-28T17:21:51.003Z,69.96
2022-09-28T17:24:20.191Z,70.69
2022-09-28T17:26:52.250Z,72.08
2022-09-28T17:29:21.615Z,71.48
2022-09-28T17:31:49.986Z,72.37
2022-09-28T17:34:19.913Z,72.92
2022-09-28T17:36:48.513Z,73.27
2022-09-28T17:39:18.519Z,73.21
2022-09-28T17:41:46.663Z,75.65
2022-09-28T17:44:16.366Z,76.55
2022-09-28T17:46:47.724Z,78.01
2022-09-28T17:49:16.393Z,79.85
2022-09-28T17:51:45.661Z,80.33
2022-09-28T17:54:20.001Z,81.36
2022-09-28T17:56:48.175Z,81.89
2022-09-28T17:59:18.893Z,81.73
2022-09-28T18:01:48.451Z,83.56
2022-09-28T18:04:39.566Z,84.12
2022-09-28T18:07:06.581Z,85.42
2022-09-28T18:09:34.416Z,87.28
2022-09-28T18:12:06.527Z,88.50
2022-09-28T18:14:35.811Z,88.24
2022-09-28T18:17:04.053Z,88.64
2022-09-28T18:19:32.599Z,87.74
2022-09-28T18:22:01.586Z,87.77
2022-09-28T18:24:32.561Z,87.53
2022-09-28T18:27:00.797Z,86.74
2022-09-28T18:29:32.896Z,87.33
2022-09-28T18:32:01.336Z,87.07
2022-09-28T18:34:29.190Z,88.31
2022-09-28T18:36:57.416Z,87.50
2022-09-28T18:39:26.681Z,87.91
2022-09-28T18:41:55.976Z,88.83
2022-09-28T18:44:24.093Z,89.75
2022-09-28T18:46:51.937Z,89.58
2022-09-28T18:49:19.896Z,90.73
2022-09-28T18:51:47.988Z,91.03
2022-09-28T18:54:16.139Z,91.37
2022-09-28T18:56:44.250Z,92.09
2022-09-28T18:59:14.153Z,92.86
2022-09-28T19:01:43.424Z,93.69
2022-09-28T19:04:13.644Z,93.57
2022-09-28T19:06:44.557Z,92.98
2022-09-28T19:09:13.256Z,92.09
2022-09-28T19:11:41.224Z,92.53
2022-09-28T19:14:11.214Z,93.04
2022-09-28T19:16:40.431Z,93.15
2022-09-28T19:19:08.946Z,93.24
2022-09-28T19:21:36.965Z,93.59
2022-09-28T19:24:05.534Z,94.85
2022-09-28T19:26:34.172Z,95.06
2022-09-28T19:29:02.855Z,93.32
2022-09-28T19:31:31.519Z,93.30
2022-09-28T19:34:00.983Z,92.96
2022-09-28T19:36:29.898Z,93.65
2022-09-28T19:39:02.863Z,93.61
2022-09-28T19:41:44.464Z,93.64
2022-09-28T19:44:15.833Z,93.00
2022-09-28T19:46:44.047Z,92.98
2022-09-28T19:49:19.373Z,93.36
2022-09-28T19:52:11.586Z,93.64
2022-09-28T19:54:37.691Z,92.80
2022-09-28T19:57:07.900Z,92.33
2022-09-28T19:59:36.779Z,92.88
2022-09-28T20:02:04.962Z,93.00
2022-09-28T20:04:34.196Z,93.20
2022-09-28T20:07:02.971Z,92.82
2022-09-28T20:09:30.865Z,93.72
2022-09-28T20:11:58.779Z,94.47
2022-09-28T20:14:32.155Z,94.42
2022-09-28T20:17:04.993Z,93.51
2022-09-28T20:19:35.095Z,94.24
2022-09-28T20:22:03.547Z,95.98
2022-09-28T20:24:32.602Z,96.49
2022-09-28T20:27:01.358Z,96.30
2022-09-28T20:29:31.661Z,96.54
2022-09-28T20:32:00.470Z,96.32
2022-09-28T20:34:28.616Z,96.69
2022-09-28T20:36:57.900Z,97.21
2022-09-28T20:39:25.997Z,97.20
2022-09-28T20:41:55.877Z,97.08
2022-09-28T20:44:23.872Z,98.00
2022-09-28T20:46:52.514Z,97.87
2022-09-28T20:49:20.408Z,98.93
2022-09-28T20:51:48.471Z,99.13
2022-09-28T20:54:17.750Z,99.68
2022-09-28T20:56:48.128Z,99.88
2022-09-28T20:59:16.384Z,100.00
2022-09-28T21:01:44.524Z,100.00
2022-09-28T21:04:12.978Z,100.00
2022-09-28T21:06:43.010Z,100.00
2022-09-28T21:09:12.437Z,100.00
2022-09-28T21:11:41.835Z,100.00
2022-09-28T21:14:10.796Z,100.00
2022-09-28T21:16:39.461Z,100.00
2022-09-28T21:19:07.617Z,100.00
2022-09-28T21:21:35.484Z,100.00
2022-09-28T21:24:03.651Z,100.00
2022-09-28T21:26:32.304Z,100.00
2022-09-28T21:29:02.832Z,100.00
2022-09-28T21:31:32.880Z,100.00
2022-09-28T21:34:01.187Z,100.00
2022-09-28T21:36:29.068Z,100.00
2022-09-28T21:38:56.936Z,100.00
2022-09-28T21:41:25.223Z,100.00
2022-09-28T21:43:53.653Z,100.00
2022-09-28T21:46:23.013Z,100.00
2022-09-28T21:48:53.760Z,100.00
2022-09-28T21:51:22.145Z,100.00
2022-09-28T21:53:50.317Z,100.00
2022-09-28T21:56:18.878Z,100.00
2022-09-28T21:58:47.255Z,100.00
2022-09-28T22:01:19.839Z,100.00
2022-09-28T22:03:51.717Z,100.00
2022-09-28T22:06:21.380Z,100.00
2022-09-28T22:08:50.354Z,100.00
2022-09-28T22:11:20.470Z,100.00
2022-09-28T22:13:50.086Z,100.00
2022-09-28T22:16:20.191Z,100.00
2022-09-28T22:18:49.711Z,100.00
2022-09-28T22:21:19.854Z,100.00
2022-09-28T22:23:48.403Z,100.00
2022-09-28T22:26:19.592Z,100.00
2022-09-28T22:28:49.489Z,100.00
2022-09-28T22:31:18.935Z,100.00
2022-09-28T22:33:46.872Z,100.00
2022-09-28T22:36:17.150Z,100.00
2022-09-28T22:38:45.561Z,100.00
2022-09-28T22:41:15.925Z,100.00
2022-09-28T22:43:44.272Z,100.00
2022-09-28T22:46:14.027Z,100.00
2022-09-28T22:48:43.334Z,100.00
2022-09-28T22:51:11.344Z,100.00
2022-09-28T22:53:40.513Z,100.00
2022-09-28T22:56:08.979Z,100.00
2022-09-28T22:58:38.377Z,100.00
2022-09-28T23:01:07.771Z,100.00
2022-09-28T23:03:35.987Z,100.00
2022-09-28T23:06:04.469Z,100.00
2022-09-28T23:08:33.014Z,100.00
2022-09-28T23:11:02.627Z,100.00
2022-09-28T23:13:31.204Z,100.00
2022-09-28T23:16:00.175Z,100.00
2022-09-28T23:18:29.781Z,100.00
2022-09-28T23:20:59.175Z,100.00
2022-09-28T23:23:27.125Z,100.00
2022-09-28T23:25:55.526Z,100.00
2022-09-28T23:28:26.491Z,100.00
2022-09-28T23:30:55.168Z,100.00
2022-09-28T23:33:23.708Z,100.00
2022-09-28T23:35:51.702Z,100.00
2022-09-28T23:38:19.651Z,100.00
2022-09-28T23:40:47.732Z,100.00
2022-09-28T23:43:16.030Z,100.00
2022-09-28T23:45:45.733Z,100.00
2022-09-28T23:48:14.986Z,100.00
2022-09-28T23:50:43.125Z,100.00
2022-09-28T23:53:11.017Z,100.00
2022-09-28T23:55:38.898Z,100.00
2022-09-28T23:58:06.864Z,100.00
